Time;durP1;ratioP1;P1;durP2;ratioP2;P2;SDS_P1;SDS_P2;PMS_P1;PMS_P2;Temp;Humidity;BMP_temperature;BMP_pressure;BME280_temperature;BME280_humidity;BME280_pressure;Samples;Min_cycle;Max_cycle;Signal;HPM_P1;HPM_P2
2024/01/19 00:01:47;;;;;;;;;;;;;;;9.35;100.00;92033.97;5063125;28;19920;-74
2024/01/19 00:04:16;;;;;;;;;;;;;;;9.33;100.00;92024.97;5069577;28;19927;-75
2024/01/19 00:06:42;;;;;;;;;;;;;;;9.40;100.00;92035.09;5061209;28;19927;-74
2024/01/19 00:09:09;;;;;;;;;;;;;;;9.40;100.00;92035.09;5063503;28;20321;-74
2024/01/19 00:11:36;;;;;;;;;;;;;;;9.40;100.00;92038.41;5067264;28;19931;-74
2024/01/19 00:14:02;;;;;;;;;;;;;;;9.40;100.00;92035.84;5065544;28;19928;-75
2024/01/19 00:16:29;;;;;;;;;;;;;;;9.33;100.00;92041.13;5063191;28;20399;-75
2024/01/19 00:18:57;;;;;;;;;;;;;;;9.47;100.00;92041.63;5067209;28;19920;-75
2024/01/19 00:21:25;;;;;;;;;;;;;;;9.27;100.00;92039.50;5063399;28;19960;-75
2024/01/19 00:23:52;;;;;;;;;;;;;;;9.22;100.00;92049.66;5068159;28;19920;-75
2024/01/19 00:26:19;;;;;;;;;;;;;;;9.28;100.00;92037.69;5065158;28;19921;-75
2024/01/19 00:28:45;;;;;;;;;;;;;;;9.32;100.00;92049.84;5066059;28;19927;-75
2024/01/19 00:31:12;;;;;;;;;;;;;;;9.34;100.00;92049.59;5064603;28;19928;-76
2024/01/19 00:33:39;;;;;;;;;;;;;;;9.35;100.00;92056.25;5068806;28;19926;-76
2024/01/19 00:36:06;;;;;;;;;;;;;;;9.41;100.00;92047.69;5063775;28;19924;-75
2024/01/19 00:38:34;;;;;;;;;;;;;;;9.44;100.00;92049.00;5068782;28;19924;-75
2024/01/19 00:41:01;;;;;;;;;;;;;;;9.49;100.00;92054.97;5064238;28;19931;-75
2024/01/19 00:43:27;;;;;;;;;;;;;;;9.56;100.00;92043.78;5064751;28;19927;-75
2024/01/19 00:45:54;;;;;;;;;;;;;;;9.57;100.00;92047.91;5066779;28;19947;-75
2024/01/19 00:48:21;;;;;;;;;;;;;;;9.49;100.00;92042.16;5061794;28;19925;-75
2024/01/19 00:50:47;;;;;;;;;;;;;;;9.49;100.00;92051.63;5067006;28;19930;-75
2024/01/19 00:53:14;;;;;;;;;;;;;;;9.45;100.00;92051.31;5066609;28;20286;-75
2024/01/19 00:55:42;;;;;;;;;;;;;;;9.46;100.00;92052.09;5060368;28;19972;-75
2024/01/19 00:58:10;;;;;;;;;;;;;;;9.49;100.00;92061.88;5067513;28;21305;-75
2024/01/19 01:00:37;;;;;;;;;;;;;;;9.43;100.00;92068.72;5063143;28;19924;-75
2024/01/19 01:03:04;;;;;;;;;;;;;;;9.48;100.00;92057.75;5062857;28;19920;-75
2024/01/19 01:05:30;;;;;;;;;;;;;;;9.44;100.00;92054.13;5061218;28;19927;-76
2024/01/19 01:07:57;;;;;;;;;;;;;;;9.52;100.00;92051.16;5064857;28;19924;-75
2024/01/19 01:10:23;;;;;;;;;;;;;;;9.47;100.00;92054.44;5066643;28;20266;-75
2024/01/19 01:12:51;;;;;;;;;;;;;;;9.57;100.00;92050.47;5065108;28;19921;-75
2024/01/19 01:15:18;;;;;;;;;;;;;;;9.56;100.00;92044.56;5064513;28;19920;-75
2024/01/19 01:17:45;;;;;;;;;;;;;;;9.44;100.00;92042.06;5066138;28;19959;-75
2024/01/19 01:20:12;;;;;;;;;;;;;;;9.42;100.00;92038.97;5062456;28;19920;-76
2024/01/19 01:22:38;;;;;;;;;;;;;;;9.38;100.00;92032.75;5066193;28;20035;-75
2024/01/19 01:25:05;;;;;;;;;;;;;;;9.44;100.00;92025.94;5064624;28;21416;-76
2024/01/19 01:27:32;;;;;;;;;;;;;;;9.34;100.00;92037.56;5066470;28;19925;-76
2024/01/19 01:30:05;;;;;;;;;;;;;;;9.40;100.00;92029.97;5067488;28;20301;-75
2024/01/19 01:32:32;;;;;;;;;;;;;;;9.38;100.00;92031.97;5060420;28;19924;-75
2024/01/19 01:34:58;;;;;;;;;;;;;;;9.35;100.00;92033.19;5061260;28;19920;-76
2024/01/19 01:37:25;;;;;;;;;;;;;;;9.38;100.00;92037.09;5065236;28;20011;-75
2024/01/19 01:39:52;;;;;;;;;;;;;;;9.44;100.00;92041.31;5063957;28;19927;-74
2024/01/19 01:42:18;;;;;;;;;;;;;;;9.39;100.00;92041.22;5066960;28;19924;-75
2024/01/19 01:44:45;;;;;;;;;;;;;;;9.46;100.00;92034.94;5063358;28;19956;-76
2024/01/19 01:47:13;;;;;;;;;;;;;;;9.41;100.00;92037.41;5065609;28;19924;-75
2024/01/19 01:49:40;;;;;;;;;;;;;;;9.44;100.00;92041.31;5064130;28;19924;-75
2024/01/19 01:52:06;;;;;;;;;;;;;;;9.47;100.00;92046.75;5064330;28;19932;-75
2024/01/19 01:54:33;;;;;;;;;;;;;;;9.56;100.00;92041.22;5064777;28;19924;-75
2024/01/19 01:57:00;;;;;;;;;;;;;;;9.58;100.00;92052.03;5060156;28;19928;-75
2024/01/19 01:59:27;;;;;;;;;;;;;;;9.65;100.00;92044.97;5063354;28;19925;-75
2024/01/19 02:01:54;;;;;;;;;;;;;;;9.76;100.00;92053.59;5063003;28;19921;-75
2024/01/19 02:04:22;;;;;;;;;;;;;;;9.75;100.00;92057.16;5062908;28;19924;-74
2024/01/19 02:06:49;;;;;;;;;;;;;;;9.72;100.00;92060.22;5064839;28;19924;-75
2024/01/19 02:09:16;;;;;;;;;;;;;;;9.76;100.00;92066.41;5063882;28;19927;-75
2024/01/19 02:11:42;;;;;;;;;;;;;;;10.03;100.00;92065.78;5064497;28;19921;-75
2024/01/19 02:14:10;;;;;;;;;;;;;;;9.88;100.00;92064.56;5066923;28;19920;-75
2024/01/19 02:16:37;;;;;;;;;;;;;;;9.88;100.00;92068.91;5063208;28;20305;-75
2024/01/19 02:19:03;;;;;;;;;;;;;;;9.90;100.00;92082.28;5062639;28;19939;-75
2024/01/19 02:21:31;;;;;;;;;;;;;;;9.84;100.00;92078.88;5067440;28;20316;-75
2024/01/19 02:24:01;;;;;;;;;;;;;;;9.91;100.00;92080.50;5066798;28;19936;-75
2024/01/19 02:26:29;;;;;;;;;;;;;;;9.93;100.00;92075.91;5062019;28;19924;-76
2024/01/19 02:28:56;;;;;;;;;;;;;;;9.87;100.00;92073.25;5065745;28;19924;-75
2024/01/19 02:31:22;;;;;;;;;;;;;;;9.91;100.00;92077.94;5056250;28;19921;-75
2024/01/19 02:33:49;;;;;;;;;;;;;;;9.89;100.00;92076.38;5062341;28;19947;-76
2024/01/19 02:36:16;;;;;;;;;;;;;;;9.84;100.00;92080.63;5065989;28;19946;-75
2024/01/19 02:38:42;;;;;;;;;;;;;;;9.82;100.00;92078.31;5060176;28;20452;-75
2024/01/19 02:41:09;;;;;;;;;;;;;;;9.79;100.00;92085.69;5066169;28;19962;-75
2024/01/19 02:43:37;;;;;;;;;;;;;;;9.80;100.00;92082.91;5066706;28;20036;-75
2024/01/19 02:46:04;;;;;;;;;;;;;;;9.75;100.00;92087.94;5070452;28;19927;-75
2024/01/19 02:48:30;;;;;;;;;;;;;;;9.67;100.00;92083.97;5065956;28;19924;-75
2024/01/19 02:50:57;;;;;;;;;;;;;;;9.70;100.00;92085.28;5069345;28;19924;-75
2024/01/19 02:53:23;;;;;;;;;;;;;;;9.74;100.00;92089.75;5071008;28;20598;-75
2024/01/19 02:55:50;;;;;;;;;;;;;;;9.57;100.00;92094.84;5069583;28;19978;-74
2024/01/19 02:58:17;;;;;;;;;;;;;;;9.51;100.00;92095.75;5068455;28;19925;-74
2024/01/19 03:00:45;;;;;;;;;;;;;;;9.50;100.00;92094.22;5070550;28;19927;-74
2024/01/19 03:03:11;;;;;;;;;;;;;;;9.48;100.00;92091.09;5061366;28;19927;-75
2024/01/19 03:05:38;;;;;;;;;;;;;;;9.49;100.00;92095.19;5070416;28;19931;-75
2024/01/19 03:08:05;;;;;;;;;;;;;;;9.44;100.00;92098.47;5069652;28;19931;-75
2024/01/19 03:10:31;;;;;;;;;;;;;;;9.57;100.00;92087.16;5070272;28;19924;-75
2024/01/19 03:12:58;;;;;;;;;;;;;;;9.58;100.00;92086.13;5066294;28;19921;-75
2024/01/19 03:15:25;;;;;;;;;;;;;;;9.53;100.00;92087.84;5069126;28;20011;-75
2024/01/19 03:17:53;;;;;;;;;;;;;;;9.51;100.00;92082.94;5070110;28;19931;-75
2024/01/19 03:20:20;;;;;;;;;;;;;;;9.55;100.00;92080.69;5067013;28;19921;-75
2024/01/19 03:22:46;;;;;;;;;;;;;;;9.49;100.00;92090.06;5070100;28;19931;-75
2024/01/19 03:25:13;;;;;;;;;;;;;;;9.48;100.00;92086.75;5066075;28;19920;-75
2024/01/19 03:27:40;;;;;;;;;;;;;;;9.55;100.00;92091.75;5069778;28;19931;-76
2024/01/19 03:30:07;;;;;;;;;;;;;;;9.58;100.00;92095.63;5070489;28;19928;-75
2024/01/19 03:32:33;;;;;;;;;;;;;;;9.57;100.00;92086.34;5064552;28;20490;-75
2024/01/19 03:35:01;;;;;;;;;;;;;;;9.56;100.00;92077.91;5069075;28;19983;-75
2024/01/19 03:37:28;;;;;;;;;;;;;;;9.61;100.00;92072.88;5064605;28;19952;-75
2024/01/19 03:39:55;;;;;;;;;;;;;;;9.57;100.00;92074.31;5069518;28;19920;-75
2024/01/19 03:42:22;;;;;;;;;;;;;;;9.42;100.00;92087.66;5069962;28;19927;-75
2024/01/19 03:44:48;;;;;;;;;;;;;;;9.49;100.00;92095.97;5064194;28;20400;-75
2024/01/19 03:47:15;;;;;;;;;;;;;;;9.37;100.00;92105.53;5064967;28;19927;-75
2024/01/19 03:49:41;;;;;;;;;;;;;;;9.44;100.00;92113.06;5067739;28;19924;-76
2024/01/19 03:52:16;;;;;;;;;;;;;;;9.44;100.00;92113.84;5066266;28;20290;-75
2024/01/19 03:54:42;;;;;;;;;;;;;;;9.43;100.00;92114.84;5065828;28;19927;-76
2024/01/19 03:57:09;;;;;;;;;;;;;;;9.34;100.00;92109.31;5069661;28;19959;-76
2024/01/19 03:59:36;;;;;;;;;;;;;;;9.31;100.00;92120.00;5065023;28;19977;-76
2024/01/19 04:02:04;;;;;;;;;;;;;;;9.37;100.00;92115.78;5064627;28;19925;-76
2024/01/19 04:04:31;;;;;;;;;;;;;;;9.47;100.00;92121.09;5067663;28;19921;-75
2024/01/19 04:06:58;;;;;;;;;;;;;;;9.45;100.00;92123.06;5069291;28;19940;-75
2024/01/19 04:09:26;;;;;;;;;;;;;;;9.57;100.00;92114.56;5065967;28;21370;-76
2024/01/19 04:11:52;;;;;;;;;;;;;;;9.67;100.00;92119.88;5062994;28;19924;-76
2024/01/19 04:14:21;;;;;;;;;;;;;;;9.65;100.00;92119.31;5064919;28;19942;-76
2024/01/19 04:16:48;;;;;;;;;;;;;;;9.57;100.00;92127.38;5069286;28;19928;-76
2024/01/19 04:19:14;;;;;;;;;;;;;;;9.45;100.00;92125.66;5062320;28;19926;-76
2024/01/19 04:21:41;;;;;;;;;;;;;;;9.44;100.00;92123.31;5069274;28;19924;-76
2024/01/19 04:24:08;;;;;;;;;;;;;;;9.50;100.00;92122.41;5066338;28;20003;-76
2024/01/19 04:26:36;;;;;;;;;;;;;;;9.51;100.00;92123.97;5065714;28;20315;-75
2024/01/19 04:29:04;;;;;;;;;;;;;;;9.51;100.00;92118.03;5068804;28;20502;-74
2024/01/19 04:31:30;;;;;;;;;;;;;;;9.58;100.00;92124.59;5066001;28;19920;-75
2024/01/19 04:33:57;;;;;;;;;;;;;;;9.61;100.00;92128.47;5064473;28;19920;-75
2024/01/19 04:36:24;;;;;;;;;;;;;;;9.67;100.00;92130.13;5067900;28;19920;-75
2024/01/19 04:38:51;;;;;;;;;;;;;;;9.65;100.00;92127.03;5068730;28;19924;-75
2024/01/19 04:41:20;;;;;;;;;;;;;;;9.70;100.00;92132.25;5065064;28;19966;-75
2024/01/19 04:43:49;;;;;;;;;;;;;;;9.62;100.00;92123.13;5067251;28;19932;-75
2024/01/19 04:46:15;;;;;;;;;;;;;;;9.70;100.00;92134.00;5065932;28;20888;-75
2024/01/19 04:48:42;;;;;;;;;;;;;;;9.63;100.00;92134.94;5067977;28;19927;-76
2024/01/19 04:51:08;;;;;;;;;;;;;;;9.71;100.00;92143.25;5066127;28;20011;-75
2024/01/19 04:53:35;;;;;;;;;;;;;;;9.62;100.00;92135.94;5064019;28;19938;-75
2024/01/19 04:56:04;;;;;;;;;;;;;;;9.67;100.00;92145.50;5063891;28;20011;-75
2024/01/19 04:58:31;;;;;;;;;;;;;;;9.65;100.00;92144.97;5067987;28;20293;-75
2024/01/19 05:00:59;;;;;;;;;;;;;;;9.49;100.00;92143.91;5068008;28;19931;-75
2024/01/19 05:03:25;;;;;;;;;;;;;;;9.38;100.00;92137.03;5065420;28;19931;-76
2024/01/19 05:05:52;;;;;;;;;;;;;;;9.41;100.00;92145.06;5064216;28;20297;-76
2024/01/19 05:08:19;;;;;;;;;;;;;;;9.43;100.00;92150.72;5067228;28;19925;-75
2024/01/19 05:10:46;;;;;;;;;;;;;;;9.43;100.00;92155.84;5065460;28;19931;-75
2024/01/19 05:13:12;;;;;;;;;;;;;;;9.40;100.00;92151.19;5059866;28;20309;-75
2024/01/19 05:15:39;;;;;;;;;;;;;;;9.43;100.00;92147.38;5068052;28;19924;-75
2024/01/19 05:18:07;;;;;;;;;;;;;;;9.44;100.00;92154.09;5067327;28;19981;-75
2024/01/19 05:20:34;;;;;;;;;;;;;;;9.47;100.00;92151.06;5064816;28;19924;-76
2024/01/19 05:23:01;;;;;;;;;;;;;;;9.50;100.00;92158.28;5067093;28;19920;-76
2024/01/19 05:25:27;;;;;;;;;;;;;;;9.48;100.00;92152.59;5067995;28;19946;-76
2024/01/19 05:27:55;;;;;;;;;;;;;;;9.43;100.00;92158.44;5067068;28;21335;-75
2024/01/19 05:30:21;;;;;;;;;;;;;;;9.48;100.00;92150.03;5064509;28;19950;-76
2024/01/19 05:32:48;;;;;;;;;;;;;;;9.52;100.00;92155.47;5060878;28;19920;-76
2024/01/19 05:35:16;;;;;;;;;;;;;;;9.47;100.00;92151.84;5064294;28;19971;-76
2024/01/19 05:37:43;;;;;;;;;;;;;;;9.51;100.00;92148.81;5064440;28;19927;-76
2024/01/19 05:40:10;;;;;;;;;;;;;;;9.55;100.00;92155.81;5067336;28;19926;-76
2024/01/19 05:42:37;;;;;;;;;;;;;;;9.51;100.00;92161.63;5067243;28;20501;-75
2024/01/19 05:45:03;;;;;;;;;;;;;;;9.46;100.00;92167.44;5066487;28;19920;-74
2024/01/19 05:47:30;;;;;;;;;;;;;;;9.53;100.00;92170.63;5065385;28;20386;-75
2024/01/19 05:49:57;;;;;;;;;;;;;;;9.56;100.00;92161.72;5066155;28;20012;-75
2024/01/19 05:52:25;;;;;;;;;;;;;;;9.62;100.00;92166.72;5064297;28;20021;-75
2024/01/19 05:54:52;;;;;;;;;;;;;;;9.60;100.00;92170.50;5065818;28;20013;-75
2024/01/19 05:57:18;;;;;;;;;;;;;;;9.57;100.00;92169.19;5061710;28;19924;-75
2024/01/19 05:59:45;;;;;;;;;;;;;;;9.58;100.00;92169.97;5066132;28;19927;-75
2024/01/19 06:02:11;;;;;;;;;;;;;;;9.58;100.00;92169.97;5060518;28;20627;-74
2024/01/19 06:04:40;;;;;;;;;;;;;;;9.66;100.00;92173.94;5065298;28;19931;-75
2024/01/19 06:07:07;;;;;;;;;;;;;;;9.69;100.00;92176.84;5063912;28;20003;-75
2024/01/19 06:09:35;;;;;;;;;;;;;;;9.65;100.00;92175.75;5063459;28;20301;-74
2024/01/19 06:12:02;;;;;;;;;;;;;;;9.67;100.00;92172.94;5061728;28;19970;-75
2024/01/19 06:14:29;;;;;;;;;;;;;;;9.65;100.00;92172.38;5062078;28;20018;-75
2024/01/19 06:16:56;;;;;;;;;;;;;;;9.65;100.00;92168.03;5066965;28;20378;-74
2024/01/19 06:19:22;;;;;;;;;;;;;;;9.55;100.00;92180.69;5065684;28;20003;-74
2024/01/19 06:21:56;;;;;;;;;;;;;;;9.63;100.00;92177.75;5063994;28;19920;-74
2024/01/19 06:24:22;;;;;;;;;;;;;;;9.58;100.00;92178.44;5066347;28;19928;-74
2024/01/19 06:26:50;;;;;;;;;;;;;;;9.59;100.00;92189.47;5066481;28;20304;-75
2024/01/19 06:29:17;;;;;;;;;;;;;;;9.61;100.00;92185.69;5061401;28;19930;-74
2024/01/19 06:31:44;;;;;;;;;;;;;;;9.59;100.00;92190.22;5056325;28;19927;-74
2024/01/19 06:34:11;;;;;;;;;;;;;;;9.58;100.00;92193.81;5063728;28;19927;-74
2024/01/19 06:36:38;;;;;;;;;;;;;;;9.62;100.00;92189.78;5062017;28;19924;-74
2024/01/19 06:39:07;;;;;;;;;;;;;;;9.62;100.00;92204.38;5052566;28;20290;-74
2024/01/19 06:41:44;;;;;;;;;;;;;;;9.69;100.00;92212.75;5050547;28;20039;-74
2024/01/19 06:44:14;;;;;;;;;;;;;;;9.84;100.00;92219.13;5051123;28;20442;-74
2024/01/19 06:46:44;;;;;;;;;;;;;;;9.85;100.00;92220.69;5050205;28;19924;-73
2024/01/19 06:49:10;;;;;;;;;;;;;;;9.99;100.00;92221.97;5053914;28;20015;-74
2024/01/19 06:51:37;;;;;;;;;;;;;;;10.03;100.00;92212.81;5052127;28;19930;-75
2024/01/19 06:54:04;;;;;;;;;;;;;;;9.99;100.00;92210.94;5052008;28;19920;-75
2024/01/19 06:56:30;;;;;;;;;;;;;;;10.10;100.00;92217.78;5048657;28;20268;-75
2024/01/19 06:58:57;;;;;;;;;;;;;;;10.08;100.00;92224.94;5050576;28;19931;-75
2024/01/19 07:01:25;;;;;;;;;;;;;;;10.18;100.00;92226.13;5049058;28;20374;-75
2024/01/19 07:03:52;;;;;;;;;;;;;;;10.17;100.00;92227.91;5058935;28;19931;-74
2024/01/19 07:06:18;;;;;;;;;;;;;;;10.22;100.00;92229.78;5055093;28;19952;-75
2024/01/19 07:08:45;;;;;;;;;;;;;;;10.16;100.00;92224.59;5055746;28;19920;-75
2024/01/19 07:11:12;;;;;;;;;;;;;;;10.10;100.00;92222.91;5052901;28;20289;-75
2024/01/19 07:13:38;;;;;;;;;;;;;;;10.12;100.00;92230.41;5057759;28;19924;-75
2024/01/19 07:16:07;;;;;;;;;;;;;;;10.04;100.00;92226.41;5054017;28;19927;-75
2024/01/19 07:18:36;;;;;;;;;;;;;;;10.09;100.00;92223.19;5047761;28;19931;-74
2024/01/19 07:21:02;;;;;;;;;;;;;;;10.07;100.00;92223.41;5050500;28;20306;-74
2024/01/19 07:23:29;;;;;;;;;;;;;;;10.12;100.00;92230.41;5054670;28;19925;-75
2024/01/19 07:25:56;;;;;;;;;;;;;;;10.22;100.00;92217.75;5052744;28;19930;-75
2024/01/19 07:28:22;;;;;;;;;;;;;;;10.31;100.00;92215.56;5056089;28;19921;-74
2024/01/19 07:30:49;;;;;;;;;;;;;;;10.40;100.00;92211.63;5051668;28;19924;-75
2024/01/19 07:33:15;;;;;;;;;;;;;;;10.58;100.00;92225.25;5052129;28;20302;-74
2024/01/19 07:35:44;;;;;;;;;;;;;;;10.72;100.00;92230.84;5058179;28;20300;-73
2024/01/19 07:38:10;;;;;;;;;;;;;;;10.83;100.00;92229.19;5054827;28;20282;-74
2024/01/19 07:40:37;;;;;;;;;;;;;;;10.83;100.00;92232.56;5055209;28;19944;-73
2024/01/19 07:43:04;;;;;;;;;;;;;;;10.95;100.00;92229.91;5057003;28;19924;-74
2024/01/19 07:45:31;;;;;;;;;;;;;;;10.88;100.00;92231.84;5050861;28;19925;-74
2024/01/19 07:47:57;;;;;;;;;;;;;;;10.93;100.00;92233.72;5057853;28;20864;-74
2024/01/19 07:50:24;;;;;;;;;;;;;;;11.00;100.00;92231.78;5055521;28;20559;-74
2024/01/19 07:52:52;;;;;;;;;;;;;;;11.08;100.00;92233.91;5052267;28;20401;-74
2024/01/19 07:55:20;;;;;;;;;;;;;;;11.06;100.00;92235.19;5063290;28;19925;-74
2024/01/19 07:57:46;;;;;;;;;;;;;;;11.07;100.00;92226.47;5052623;28;19921;-74
2024/01/19 08:00:13;;;;;;;;;;;;;;;11.15;100.00;92231.19;5053977;28;19921;-74
2024/01/19 08:02:41;;;;;;;;;;;;;;;11.16;100.00;92232.75;5051334;28;19924;-74
2024/01/19 08:05:08;;;;;;;;;;;;;;;11.28;100.00;92229.28;5052369;28;20344;-74
2024/01/19 08:07:34;;;;;;;;;;;;;;;11.28;100.00;92232.66;5051767;28;19924;-74
2024/01/19 08:10:03;;;;;;;;;;;;;;;11.45;100.00;92230.03;5052147;28;19931;-74
2024/01/19 08:12:30;;;;;;;;;;;;;;;11.61;100.00;92248.19;5054283;28;19928;-74
2024/01/19 08:14:57;;;;;;;;;;;;;;;11.64;100.00;92240.00;5058262;28;20710;-74
2024/01/19 08:17:24;;;;;;;;;;;;;;;11.48;100.00;92241.63;5062358;28;19971;-74
2024/01/19 08:19:50;;;;;;;;;;;;;;;11.52;100.00;92241.94;5054509;28;19920;-74
2024/01/19 08:22:17;;;;;;;;;;;;;;;11.52;100.00;92245.28;5060167;28;20313;-73
2024/01/19 08:24:44;;;;;;;;;;;;;;;11.40;100.00;92245.41;5050230;28;19926;-73
2024/01/19 08:27:12;;;;;;;;;;;;;;;11.50;100.00;92253.22;5062475;28;19931;-73
2024/01/19 08:29:39;;;;;;;;;;;;;;;11.52;100.00;92257.38;5053251;28;19924;-74
2024/01/19 08:32:05;;;;;;;;;;;;;;;11.59;100.00;92260.53;5060246;28;19950;-74
2024/01/19 08:34:32;;;;;;;;;;;;;;;11.68;100.00;92263.47;5056624;28;20302;-74
2024/01/19 08:36:58;;;;;;;;;;;;;;;11.79;100.00;92260.00;5054325;28;19928;-74
2024/01/19 08:39:25;;;;;;;;;;;;;;;11.84;100.00;92259.25;5057466;28;19924;-74
2024/01/19 08:41:52;;;;;;;;;;;;;;;11.99;100.00;92274.88;5053130;28;19921;-74
2024/01/19 08:44:20;;;;;;;;;;;;;;;11.96;100.00;92267.66;5049499;28;19925;-74
2024/01/19 08:46:47;;;;;;;;;;;;;;;12.01;100.00;92269.50;5049357;28;20386;-74
2024/01/19 08:49:14;;;;;;;;;;;;;;;12.03;100.00;92272.59;5050576;28;19928;-74
2024/01/19 08:51:41;;;;;;;;;;;;;;;12.05;100.00;92269.81;5060251;28;19978;-74
2024/01/19 08:54:07;;;;;;;;;;;;;;;12.00;100.00;92260.22;5054464;28;19924;-75
2024/01/19 08:56:34;;;;;;;;;;;;;;;11.99;100.00;92271.53;5051308;28;19920;-75
2024/01/19 08:59:01;;;;;;;;;;;;;;;12.15;100.00;92262.97;5049504;28;19991;-75
2024/01/19 09:01:31;;;;;;;;;;;;;;;12.21;100.00;92268.19;5051467;28;19925;-74
2024/01/19 09:03:58;;;;;;;;;;;;;;;12.09;100.00;92276.78;5052492;28;19924;-75
2024/01/19 09:06:24;;;;;;;;;;;;;;;12.19;100.00;92283.88;5051331;28;19928;-75
2024/01/19 09:08:51;;;;;;;;;;;;;;;12.14;100.00;92291.53;5053446;28;19920;-74
2024/01/19 09:11:18;;;;;;;;;;;;;;;12.26;100.00;92294.75;5050315;28;20312;-74
2024/01/19 09:13:44;;;;;;;;;;;;;;;12.18;100.00;92286.69;5058736;28;19920;-75
2024/01/19 09:16:12;;;;;;;;;;;;;;;12.23;100.00;92276.44;5052366;28;19924;-75
2024/01/19 09:18:40;;;;;;;;;;;;;;;12.26;100.00;92278.50;5050466;28;19921;-75
2024/01/19 09:21:06;;;;;;;;;;;;;;;12.32;100.00;92275.00;5051814;28;19924;-75
2024/01/19 09:23:34;;;;;;;;;;;;;;;12.34;100.00;92272.16;5049573;28;20387;-74
2024/01/19 09:26:00;;;;;;;;;;;;;;;12.37;100.00;92272.44;5054350;28;19927;-74
2024/01/19 09:28:27;;;;;;;;;;;;;;;12.34;100.00;92270.34;5059864;28;20554;-74
2024/01/19 09:30:54;;;;;;;;;;;;;;;12.40;100.00;92268.59;5051833;28;19925;-74
2024/01/19 09:33:20;;;;;;;;;;;;;;;12.36;100.00;92267.56;5051369;28;19921;-75
2024/01/19 09:35:48;;;;;;;;;;;;;;;12.44;100.00;92267.09;5054478;28;19924;-74
2024/01/19 09:38:15;;;;;;;;;;;;;;;12.51;100.00;92264.31;5050046;28;19927;-74
2024/01/19 09:40:44;;;;;;;;;;;;;;;12.51;100.00;92267.66;5049326;28;20398;-74
2024/01/19 09:43:11;;;;;;;;;;;;;;;12.67;100.00;92270.38;5057398;28;19946;-74
2024/01/19 09:45:40;;;;;;;;;;;;;;;12.78;100.00;92268.66;5048657;28;20417;-74
2024/01/19 09:48:12;;;;;;;;;;;;;;;12.86;100.00;92270.03;5052556;28;19921;-74
2024/01/19 09:50:41;;;;;;;;;;;;;;;12.96;100.00;92270.06;5049978;28;20016;-74
2024/01/19 09:53:14;;;;;;;;;;;;;;;13.08;100.00;92280.22;5050431;28;20297;-74
2024/01/19 09:55:41;;;;;;;;;;;;;;;13.34;100.00;92283.72;5048325;28;19924;-74
2024/01/19 09:58:07;;;;;;;;;;;;;;;13.69;99.99;92273.88;5050237;28;19971;-74
2024/01/19 10:00:34;;;;;;;;;;;;;;;13.82;96.69;92271.84;5055883;28;19920;-74
2024/01/19 10:03:01;;;;;;;;;;;;;;;13.87;94.69;92270.06;5048868;28;19924;-74
2024/01/19 10:05:28;;;;;;;;;;;;;;;13.74;93.34;92239.56;5053635;28;19920;-74
2024/01/19 10:07:55;;;;;;;;;;;;;;;13.86;95.00;92273.69;5052782;28;19924;-74
2024/01/19 10:10:23;;;;;;;;;;;;;;;13.93;94.75;92263.09;5050349;28;19960;-74
2024/01/19 10:12:49;;;;;;;;;;;;;;;14.00;94.40;92253.34;5050232;28;19966;-74
2024/01/19 10:15:17;;;;;;;;;;;;;;;13.92;95.71;92243.50;5050456;28;19925;-74
2024/01/19 10:17:44;;;;;;;;;;;;;;;13.84;95.33;92238.84;5050460;28;19924;-74
2024/01/19 10:20:12;;;;;;;;;;;;;;;13.84;96.77;92231.84;5049302;28;20293;-74
2024/01/19 10:22:39;;;;;;;;;;;;;;;13.80;96.94;92220.47;5055094;28;19939;-74
2024/01/19 10:25:08;;;;;;;;;;;;;;;13.92;98.28;92222.06;5049722;28;19924;-74
2024/01/19 10:27:39;;;;;;;;;;;;;;;14.01;97.78;92213.56;5054566;28;20378;-74
2024/01/19 10:30:10;;;;;;;;;;;;;;;14.25;97.25;92222.63;5048970;28;20420;-74
2024/01/19 10:32:38;;;;;;;;;;;;;;;14.42;93.47;92225.78;5051069;28;19947;-74
2024/01/19 10:35:05;;;;;;;;;;;;;;;14.54;89.46;92219.56;5058320;28;19936;-74
2024/01/19 10:37:32;;;;;;;;;;;;;;;14.64;90.43;92213.63;5047515;28;19925;-74
2024/01/19 10:39:58;;;;;;;;;;;;;;;14.77;90.31;92220.88;5046902;28;19951;-74
2024/01/19 10:42:25;;;;;;;;;;;;;;;14.88;88.47;92200.97;5048429;28;20025;-74
2024/01/19 10:44:53;;;;;;;;;;;;;;;14.88;87.57;92195.81;5050906;28;19925;-74
2024/01/19 10:47:20;;;;;;;;;;;;;;;14.88;87.75;92187.25;5053593;28;19931;-74
2024/01/19 10:49:46;;;;;;;;;;;;;;;14.81;84.62;92182.34;5052974;28;19924;-74
2024/01/19 10:52:13;;;;;;;;;;;;;;;14.73;87.97;92191.41;5051802;28;19925;-74
2024/01/19 10:54:39;;;;;;;;;;;;;;;14.72;88.25;92182.06;5050856;28;19931;-74
2024/01/19 10:57:08;;;;;;;;;;;;;;;14.82;88.53;92183.91;5050493;28;20629;-74
2024/01/19 10:59:35;;;;;;;;;;;;;;;14.95;88.14;92180.03;5048922;28;19931;-74
2024/01/19 11:02:04;;;;;;;;;;;;;;;15.04;86.60;92186.19;5049180;28;19994;-74
2024/01/19 11:04:31;;;;;;;;;;;;;;;15.09;86.62;92178.41;5056329;28;20821;-74
2024/01/19 11:06:57;;;;;;;;;;;;;;;15.17;85.28;92179.69;5053851;28;19925;-74
2024/01/19 11:09:24;;;;;;;;;;;;;;;15.33;84.10;92179.66;5053070;28;19924;-74
2024/01/19 11:11:54;;;;;;;;;;;;;;;15.46;83.61;92175.72;5061526;28;19925;-74
2024/01/19 11:14:23;;;;;;;;;;;;;;;15.59;80.00;92182.13;5052946;28;20382;-75
2024/01/19 11:16:52;;;;;;;;;;;;;;;15.57;79.45;92179.81;5057928;28;20357;-74
2024/01/19 11:19:20;;;;;;;;;;;;;;;15.40;80.64;92169.00;5055477;28;20377;-74
2024/01/19 11:21:47;;;;;;;;;;;;;;;15.49;80.17;92172.59;5051610;28;19947;-75
2024/01/19 11:24:15;;;;;;;;;;;;;;;15.56;79.70;92174.91;5054715;28;19925;-74
2024/01/19 11:26:45;;;;;;;;;;;;;;;15.54;80.01;92180.34;5051135;28;20375;-74
2024/01/19 11:29:17;;;;;;;;;;;;;;;15.63;80.75;92186.53;5054401;28;19944;-74
2024/01/19 11:31:45;;;;;;;;;;;;;;;15.72;79.20;92196.31;5052152;28;19989;-74
2024/01/19 11:34:26;;;;;;;;;;;;;;;15.86;79.49;92192.09;5056532;28;19925;-74
2024/01/19 11:36:54;;;;;;;;;;;;;;;15.99;78.10;92179.63;5062544;28;19939;-75
2024/01/19 11:39:43;;;;;;;;;;;;;;;15.96;78.22;92180.19;5055667;28;19924;-75
2024/01/19 11:42:12;;;;;;;;;;;;;;;16.00;78.26;92192.31;5061179;28;19925;-75
2024/01/19 11:44:44;;;;;;;;;;;;;;;16.10;75.99;92181.13;5058981;28;19924;-75
2024/01/19 11:47:33;;;;;;;;;;;;;;;16.19;78.97;92181.31;5053589;28;20456;-75
2024/01/19 11:50:00;;;;;;;;;;;;;;;16.26;78.00;92162.88;5053322;28;19925;-75
2024/01/19 11:52:41;;;;;;;;;;;;;;;16.12;76.74;92168.66;5054301;28;19924;-75
2024/01/19 11:55:23;;;;;;;;;;;;;;;16.16;78.40;92167.06;5054711;28;20370;-75
2024/01/19 11:57:49;;;;;;;;;;;;;;;16.03;77.64;92168.44;5042881;28;20396;-75
2024/01/19 12:00:18;;;;;;;;;;;;;;;16.16;78.16;92171.50;5051236;28;19924;-75
2024/01/19 12:02:46;;;;;;;;;;;;;;;16.30;78.34;92177.59;5054301;28;19921;-75
2024/01/19 12:05:13;;;;;;;;;;;;;;;16.16;77.53;92169.66;5054703;28;19946;-75
2024/01/19 12:07:42;;;;;;;;;;;;;;;15.99;77.60;92175.22;5053035;28;19925;-75
2024/01/19 12:10:10;;;;;;;;;;;;;;;15.86;77.37;92171.38;5057939;28;19925;-74
2024/01/19 12:12:37;;;;;;;;;;;;;;;15.78;77.47;92182.28;5056612;28;20396;-75
2024/01/19 12:15:04;;;;;;;;;;;;;;;15.52;79.14;92182.44;5051466;28;19931;-75
2024/01/19 12:17:31;;;;;;;;;;;;;;;15.51;78.84;92183.47;5049387;28;20378;-75
2024/01/19 12:19:58;;;;;;;;;;;;;;;15.39;79.17;92186.34;5052608;28;19931;-75
2024/01/19 12:22:26;;;;;;;;;;;;;;;15.35;79.37;92191.28;5062967;28;19920;-75
2024/01/19 12:25:12;;;;;;;;;;;;;;;15.14;78.66;92185.38;5052438;28;19990;-75
2024/01/19 12:27:38;;;;;;;;;;;;;;;15.00;79.59;92195.50;5063118;28;19924;-75
2024/01/19 12:30:09;;;;;;;;;;;;;;;15.08;79.06;92184.63;5050343;28;20008;-75
2024/01/19 12:32:36;;;;;;;;;;;;;;;14.96;79.67;92181.56;5053751;28;19927;-74
2024/01/19 12:35:03;;;;;;;;;;;;;;;14.83;79.57;92181.06;5050655;28;19932;-74
2024/01/19 12:37:30;;;;;;;;;;;;;;;14.80;78.07;92173.84;5051261;28;19921;-74
2024/01/19 12:40:11;;;;;;;;;;;;;;;14.82;79.66;92163.25;5054934;28;19934;-74
2024/01/19 12:42:41;;;;;;;;;;;;;;;14.93;80.47;92164.75;5058248;28;19924;-75
2024/01/19 12:45:08;;;;;;;;;;;;;;;14.85;81.23;92162.69;5056161;28;19955;-74
2024/01/19 12:47:35;;;;;;;;;;;;;;;14.93;81.27;92174.31;5058872;28;19920;-75